Time;durP1;ratioP1;P1;durP2;ratioP2;P2;SDS_P1;SDS_P2;PMS_P1;PMS_P2;Temp;Humidity;BMP_temperature;BMP_pressure;BME280_temperature;BME280_humidity;BME280_pressure;Samples;Min_cycle;Max_cycle;Signal;HPM_P1;HPM_P2
2023/09/18 00:00:51;;;;;;;10.88;8.25;;;20.50;99.90;;;;;;5010905;28;20211;-73
2023/09/18 00:03:22;;;;;;;10.70;8.20;;;20.50;99.90;;;;;;5011158;28;20207;-74
2023/09/18 00:05:48;;;;;;;12.07;8.43;;;20.50;99.90;;;;;;5003515;28;20180;-74
2023/09/18 00:08:14;;;;;;;11.20;8.02;;;20.40;99.90;;;;;;5011249;28;20238;-74
2023/09/18 00:10:40;;;;;;;9.52;7.82;;;20.40;99.90;;;;;;5010682;28;20172;-73
2023/09/18 00:13:06;;;;;;;8.90;8.00;;;20.40;99.90;;;;;;5011128;28;20207;-73
2023/09/18 00:15:32;;;;;;;9.63;8.23;;;20.40;99.90;;;;;;5010962;28;20648;-74
2023/09/18 00:17:57;;;;;;;12.35;7.93;;;20.40;99.90;;;;;;5010469;28;20286;-73
2023/09/18 00:20:26;;;;;;;12.33;8.00;;;20.40;99.90;;;;;;5009465;28;20594;-73
2023/09/18 00:22:55;;;;;;;11.85;7.72;;;20.40;99.90;;;;;;5010769;28;20193;-73
2023/09/18 00:25:21;;;;;;;13.02;8.18;;;20.40;99.90;;;;;;5010875;28;20203;-74
2023/09/18 00:27:46;;;;;;;13.77;8.82;;;20.40;99.90;;;;;;5010421;28;20289;-73
2023/09/18 00:30:12;;;;;;;10.45;7.65;;;20.40;99.90;;;;;;5010669;28;20590;-73
2023/09/18 00:32:37;;;;;;;9.03;7.80;;;20.30;99.90;;;;;;5010556;28;20292;-73
2023/09/18 00:35:04;;;;;;;8.93;8.02;;;20.30;99.90;;;;;;5010722;28;20184;-74
2023/09/18 00:37:29;;;;;;;10.02;8.48;;;20.30;99.90;;;;;;5010473;28;20210;-73
2023/09/18 00:39:55;;;;;;;10.90;9.00;;;20.20;99.90;;;;;;5010304;28;20180;-73
2023/09/18 00:42:22;;;;;;;11.25;8.23;;;20.20;99.90;;;;;;5010568;28;20213;-74
2023/09/18 00:44:48;;;;;;;12.27;8.60;;;20.10;99.90;;;;;;5010539;28;20176;-73
2023/09/18 00:47:15;;;;;;;10.97;8.00;;;20.10;99.90;;;;;;5010753;28;20279;-72
2023/09/18 00:49:44;;;;;;;13.20;8.35;;;20.10;99.90;;;;;;5011850;28;20667;-73
2023/09/18 00:52:11;;;;;;;11.70;7.78;;;20.10;99.90;;;;;;5013885;28;20207;-73
2023/09/18 00:54:38;;;;;;;10.70;8.37;;;20.10;99.90;;;;;;5013922;28;20196;-74
2023/09/18 00:57:05;;;;;;;8.50;7.47;;;20.10;99.90;;;;;;5014093;28;20212;-73
2023/09/18 00:59:31;;;;;;;12.13;7.93;;;20.10;99.90;;;;;;5013790;28;20668;-73
2023/09/18 01:01:56;;;;;;;9.00;8.10;;;20.10;99.90;;;;;;5013784;28;20207;-73
2023/09/18 01:04:25;;;;;;;9.20;7.47;;;20.10;99.90;;;;;;5013951;28;20180;-73
2023/09/18 01:06:50;;;;;;;11.73;7.57;;;20.10;99.90;;;;;;5013819;28;20243;-73
2023/09/18 01:09:18;;;;;;;9.68;8.10;;;20.10;99.90;;;;;;5013074;28;20184;-74
2023/09/18 01:11:50;;;;;;;10.15;7.63;;;20.10;99.90;;;;;;5013532;28;20736;-72
2023/09/18 01:14:31;;;;;;;9.65;7.80;;;20.10;99.90;;;;;;5013624;28;20180;-72
2023/09/18 01:17:01;;;;;;;9.18;7.55;;;20.10;99.90;;;;;;5013636;28;20701;-72
2023/09/18 01:19:41;;;;;;;10.93;7.63;;;20.10;99.90;;;;;;5012159;28;20180;-73
2023/09/18 01:22:09;;;;;;;9.67;7.87;;;20.20;99.90;;;;;;5013232;28;20207;-72
2023/09/18 01:24:37;;;;;;;9.60;7.83;;;20.20;99.90;;;;;;5013416;28;20266;-72
2023/09/18 01:27:06;;;;;;;9.20;7.30;;;20.20;99.90;;;;;;5013501;28;20199;-72
2023/09/18 01:29:32;;;;;;;11.90;7.65;;;20.20;99.90;;;;;;5014642;28;20192;-72
2023/09/18 01:31:58;;;;;;;9.03;7.33;;;20.20;99.90;;;;;;5020408;28;20563;-72
2023/09/18 01:34:36;;;;;;;8.20;7.20;;;20.20;99.90;;;;;;5013729;28;20184;-72
2023/09/18 01:37:04;;;;;;;10.55;7.50;;;20.30;99.90;;;;;;5013033;28;20207;-72
2023/09/18 01:39:31;;;;;;;10.18;7.95;;;20.20;99.90;;;;;;5013071;28;20191;-73
2023/09/18 01:42:05;;;;;;;8.98;7.00;;;20.30;99.90;;;;;;5012661;28;20270;-72
2023/09/18 01:44:31;;;;;;;10.73;7.70;;;20.30;99.90;;;;;;5012936;28;20168;-73
2023/09/18 01:46:59;;;;;;;9.15;7.38;;;20.30;99.90;;;;;;5013431;28;20684;-74
2023/09/18 01:49:32;;;;;;;7.90;7.10;;;20.30;99.90;;;;;;5012654;28;20553;-74
2023/09/18 01:51:58;;;;;;;10.15;7.90;;;20.30;99.90;;;;;;5012792;28;20762;-74
2023/09/18 01:54:25;;;;;;;10.68;7.55;;;20.30;99.90;;;;;;5011389;28;20200;-74
2023/09/18 01:56:51;;;;;;;15.17;8.80;;;20.30;99.90;;;;;;5004786;28;20258;-74
2023/09/18 01:59:17;;;;;;;8.90;7.93;;;20.20;99.90;;;;;;5019686;28;20612;-74
2023/09/18 02:01:44;;;;;;;8.77;7.80;;;20.20;99.90;;;;;;5012439;28;20207;-72
2023/09/18 02:04:09;;;;;;;11.65;7.47;;;20.20;99.90;;;;;;5011343;28;20542;-72
2023/09/18 02:06:35;;;;;;;11.27;8.82;;;20.20;99.90;;;;;;5012788;28;20231;-72
2023/09/18 02:09:01;;;;;;;14.53;8.53;;;20.20;99.90;;;;;;5012036;28;20187;-72
2023/09/18 02:11:27;;;;;;;12.67;8.10;;;20.10;99.90;;;;;;5012898;28;20207;-73
2023/09/18 02:13:53;;;;;;;9.68;7.57;;;20.10;99.90;;;;;;5020501;28;20176;-73
2023/09/18 02:16:23;;;;;;;10.37;7.87;;;20.10;99.90;;;;;;5012561;28;20200;-73
2023/09/18 02:18:50;;;;;;;10.43;8.02;;;20.10;99.90;;;;;;5012553;28;20172;-75
2023/09/18 02:21:22;;;;;;;8.10;7.30;;;20.10;99.90;;;;;;5012627;28;20200;-73
2023/09/18 02:23:51;;;;;;;12.90;9.05;;;20.10;99.90;;;;;;5012304;28;20180;-73
2023/09/18 02:26:18;;;;;;;11.10;8.00;;;20.10;99.90;;;;;;5012650;28;20183;-73
2023/09/18 02:28:43;;;;;;;10.73;9.60;;;20.10;99.90;;;;;;5012222;28;20247;-74
2023/09/18 02:31:09;;;;;;;9.65;8.15;;;20.20;99.90;;;;;;5012176;28;20706;-73
2023/09/18 02:33:35;;;;;;;8.30;7.47;;;20.30;99.90;;;;;;5012439;28;20299;-74
2023/09/18 02:36:01;;;;;;;9.37;8.07;;;20.30;99.90;;;;;;5012255;28;20184;-73
2023/09/18 02:38:28;;;;;;;13.27;8.27;;;20.40;99.90;;;;;;5012123;28;20191;-74
2023/09/18 02:40:54;;;;;;;13.73;8.38;;;20.40;99.90;;;;;;5012167;28;20595;-71
2023/09/18 02:43:21;;;;;;;13.60;8.17;;;20.40;99.90;;;;;;5012136;28;20179;-73
2023/09/18 02:45:46;;;;;;;9.27;8.00;;;20.50;99.90;;;;;;5012036;28;20266;-72
2023/09/18 02:48:12;;;;;;;11.47;7.53;;;20.40;99.90;;;;;;5010847;28;20215;-72
2023/09/18 02:50:38;;;;;;;9.50;8.45;;;20.40;99.90;;;;;;5011941;28;20187;-74
2023/09/18 02:53:06;;;;;;;10.43;7.30;;;20.40;99.90;;;;;;5011647;28;20287;-73
2023/09/18 02:55:32;;;;;;;10.27;8.30;;;20.30;99.90;;;;;;5012237;28;20279;-74
2023/09/18 02:57:58;;;;;;;10.20;7.77;;;20.30;99.90;;;;;;5011819;28;20303;-73
2023/09/18 03:00:24;;;;;;;10.03;7.20;;;20.20;99.90;;;;;;5011737;28;20263;-73
2023/09/18 03:02:50;;;;;;;9.37;8.37;;;20.20;99.90;;;;;;5011762;28;20303;-74
2023/09/18 03:05:15;;;;;;;9.55;7.60;;;20.20;99.90;;;;;;5012029;28;20184;-73
2023/09/18 03:07:41;;;;;;;9.60;8.60;;;20.20;99.90;;;;;;5011430;28;20188;-73
2023/09/18 03:10:07;;;;;;;12.93;8.52;;;20.20;99.90;;;;;;5011298;28;20211;-73
2023/09/18 03:12:33;;;;;;;11.60;8.80;;;20.10;99.90;;;;;;5011388;28;20266;-73
2023/09/18 03:14:59;;;;;;;12.30;8.90;;;20.20;99.90;;;;;;5011435;28;20188;-73
2023/09/18 03:17:25;;;;;;;12.55;8.90;;;20.10;99.90;;;;;;5011985;28;20290;-73
2023/09/18 03:19:50;;;;;;;11.77;9.57;;;20.10;99.90;;;;;;5011111;28;20648;-73
2023/09/18 03:22:16;;;;;;;9.23;7.90;;;20.10;99.90;;;;;;5011571;28;20242;-73
2023/09/18 03:24:41;;;;;;;14.67;8.87;;;20.10;99.90;;;;;;5011364;28;20203;-74
2023/09/18 03:27:07;;;;;;;10.55;7.93;;;20.10;99.90;;;;;;5016799;28;20245;-74
2023/09/18 03:29:32;;;;;;;12.70;8.85;;;20.10;99.90;;;;;;5014309;28;20179;-73
2023/09/18 03:31:59;;;;;;;9.60;8.03;;;20.10;99.90;;;;;;5011092;28;20196;-74
2023/09/18 03:34:28;;;;;;;13.73;8.88;;;20.10;99.90;;;;;;5011663;28;20259;-74
2023/09/18 03:36:54;;;;;;;11.63;9.00;;;20.00;99.90;;;;;;5018175;28;20192;-73
2023/09/18 03:39:20;;;;;;;13.23;9.93;;;19.90;99.90;;;;;;5011212;28;20698;-74
2023/09/18 03:41:45;;;;;;;10.13;9.00;;;19.80;99.90;;;;;;5011024;28;20204;-74
2023/09/18 03:44:11;;;;;;;11.98;8.50;;;19.80;99.90;;;;;;5011369;28;20184;-74
2023/09/18 03:46:37;;;;;;;12.80;8.60;;;19.70;99.90;;;;;;5011454;28;20234;-73
2023/09/18 03:49:02;;;;;;;12.17;8.93;;;19.70;99.90;;;;;;5011052;28;20652;-74
2023/09/18 03:51:29;;;;;;;12.33;9.10;;;19.70;99.90;;;;;;5011373;28;20210;-74
2023/09/18 03:53:55;;;;;;;14.50;9.17;;;19.70;99.90;;;;;;5010810;28;20257;-74
2023/09/18 03:56:21;;;;;;;9.73;7.77;;;19.60;99.90;;;;;;5011005;28;20211;-74
2023/09/18 03:58:49;;;;;;;11.83;8.40;;;19.60;99.90;;;;;;5011124;28;20206;-74
2023/09/18 04:01:15;;;;;;;12.53;9.00;;;19.60;99.90;;;;;;5011180;28;20188;-74
2023/09/18 04:03:41;;;;;;;11.67;7.33;;;19.60;99.90;;;;;;5011060;28;20176;-74
2023/09/18 04:06:07;;;;;;;12.70;8.30;;;19.60;99.90;;;;;;5011030;28;20180;-73
2023/09/18 04:08:32;;;;;;;11.13;7.57;;;19.60;99.90;;;;;;5010956;28;20618;-73
2023/09/18 04:10:58;;;;;;;9.40;7.00;;;19.60;99.90;;;;;;5010657;28;20180;-74
2023/09/18 04:13:24;;;;;;;9.63;6.90;;;19.60;99.90;;;;;;5010597;28;20255;-74
2023/09/18 04:15:51;;;;;;;14.10;6.60;;;19.50;99.90;;;;;;5011156;28;20176;-73
2023/09/18 04:18:17;;;;;;;9.23;6.07;;;19.50;99.90;;;;;;5010810;28;20231;-72
2023/09/18 04:20:42;;;;;;;9.73;5.83;;;19.50;99.90;;;;;;5010515;28;20326;-73
2023/09/18 04:23:21;;;;;;;10.20;6.40;;;19.50;99.90;;;;;;5010968;28;20177;-73
2023/09/18 04:25:47;;;;;;;7.33;6.40;;;19.50;99.90;;;;;;5022412;28;20217;-74
2023/09/18 04:28:14;;;;;;;10.00;6.10;;;19.50;99.90;;;;;;5014312;28;20184;-72
2023/09/18 04:30:40;;;;;;;9.20;5.83;;;19.50;99.90;;;;;;5013919;28;20215;-73
2023/09/18 04:33:06;;;;;;;8.17;5.90;;;19.50;99.90;;;;;;5014683;28;20188;-73
2023/09/18 04:35:32;;;;;;;7.80;6.47;;;19.60;99.90;;;;;;5014584;28;20183;-72
2023/09/18 04:37:59;;;;;;;8.03;5.83;;;19.60;99.90;;;;;;5014238;28;20204;-72
2023/09/18 04:40:26;;;;;;;11.33;6.33;;;19.60;99.90;;;;;;5014269;28;20184;-72
2023/09/18 04:42:52;;;;;;;13.40;6.33;;;19.60;99.90;;;;;;5012522;28;20196;-72
2023/09/18 04:45:18;;;;;;;7.70;6.07;;;19.60;99.90;;;;;;5014559;28;20187;-72
2023/09/18 04:47:44;;;;;;;9.87;5.97;;;19.60;99.90;;;;;;5013906;28;20544;-74
2023/09/18 04:50:10;;;;;;;11.87;6.07;;;19.50;99.90;;;;;;5013916;28;20527;-73
2023/09/18 04:52:40;;;;;;;6.57;5.97;;;19.50;99.90;;;;;;5013945;28;20212;-74
2023/09/18 04:55:06;;;;;;;9.30;6.10;;;19.50;99.90;;;;;;5014015;28;20192;-74
2023/09/18 04:57:32;;;;;;;8.83;6.23;;;19.50;99.90;;;;;;5014122;28;20258;-75
2023/09/18 04:59:57;;;;;;;9.50;5.90;;;19.50;99.90;;;;;;5013018;28;20188;-73
2023/09/18 05:02:25;;;;;;;13.90;6.33;;;19.50;99.90;;;;;;5013384;28;20200;-73
2023/09/18 05:04:51;;;;;;;8.37;6.00;;;19.60;99.90;;;;;;5013926;28;20548;-74
2023/09/18 05:07:16;;;;;;;8.60;5.73;;;19.60;99.90;;;;;;5013579;28;20274;-74
2023/09/18 05:09:42;;;;;;;6.47;5.00;;;19.70;99.90;;;;;;5013491;28;20262;-74
2023/09/18 05:12:13;;;;;;;10.63;5.80;;;19.70;99.90;;;;;;5013484;28;20208;-73
2023/09/18 05:14:40;;;;;;;9.07;5.07;;;19.70;99.90;;;;;;5013644;28;20180;-75
2023/09/18 05:17:06;;;;;;;7.93;5.97;;;19.70;99.90;;;;;;5013552;28;20755;-73
2023/09/18 05:19:32;;;;;;;6.13;4.65;;;19.70;99.90;;;;;;5013521;28;20176;-73
2023/09/18 05:21:57;;;;;;;9.07;5.37;;;19.70;99.90;;;;;;5014360;28;20374;-73
2023/09/18 05:24:27;;;;;;;7.97;5.13;;;19.70;99.90;;;;;;5015057;28;20173;-73
2023/09/18 05:26:53;;;;;;;11.75;5.65;;;19.70;99.90;;;;;;5015129;28;20187;-74
2023/09/18 05:29:19;;;;;;;10.97;4.60;;;19.70;99.90;;;;;;5013724;28;20188;-72
2023/09/18 05:31:45;;;;;;;7.47;4.73;;;19.70;99.90;;;;;;5012442;28;20214;-73
2023/09/18 05:34:12;;;;;;;12.80;5.60;;;19.70;99.90;;;;;;5013705;28;20714;-73
2023/09/18 05:36:38;;;;;;;8.23;5.03;;;19.70;99.90;;;;;;5012818;28;20192;-73
2023/09/18 05:39:04;;;;;;;12.30;5.60;;;19.80;99.90;;;;;;5005481;28;20656;-73
2023/09/18 05:41:30;;;;;;;10.50;5.50;;;19.80;99.90;;;;;;5020561;28;20191;-73
2023/09/18 05:43:56;;;;;;;8.05;4.78;;;19.90;99.90;;;;;;5012342;28;20189;-74
2023/09/18 05:46:22;;;;;;;8.53;5.27;;;19.90;99.90;;;;;;5013095;28;20234;-74
2023/09/18 05:48:47;;;;;;;6.80;4.87;;;19.90;99.90;;;;;;5012984;28;20580;-75
2023/09/18 05:51:13;;;;;;;10.13;4.90;;;19.90;99.90;;;;;;5012901;28;20207;-76
2023/09/18 05:53:39;;;;;;;6.90;5.20;;;19.90;99.90;;;;;;5012736;28;20291;-73
2023/09/18 05:56:05;;;;;;;6.33;4.90;;;20.00;99.90;;;;;;5012937;28;20188;-73
2023/09/18 05:58:34;;;;;;;8.23;4.53;;;20.00;99.90;;;;;;5014495;28;20219;-73
2023/09/18 06:01:00;;;;;;;7.77;4.30;;;20.10;99.90;;;;;;5012661;28;20192;-72
2023/09/18 06:03:26;;;;;;;6.97;4.37;;;20.20;99.90;;;;;;5011099;28;20586;-72
2023/09/18 06:05:52;;;;;;;10.47;5.10;;;20.10;99.90;;;;;;5012672;28;20164;-74
2023/09/18 06:08:18;;;;;;;5.13;4.47;;;20.10;99.90;;;;;;5012688;28;20656;-72
2023/09/18 06:10:44;;;;;;;8.60;4.60;;;20.20;99.90;;;;;;5012214;28;20658;-72
2023/09/18 06:13:10;;;;;;;5.77;4.63;;;20.20;99.90;;;;;;5012569;28;20230;-72
2023/09/18 06:15:36;;;;;;;6.73;4.70;;;20.20;99.90;;;;;;5012053;28;20279;-73
2023/09/18 06:18:03;;;;;;;6.50;4.47;;;20.20;99.90;;;;;;5012219;28;20252;-72
2023/09/18 06:20:29;;;;;;;5.53;4.13;;;20.20;99.90;;;;;;5012403;28;20255;-72
2023/09/18 06:22:54;;;;;;;5.07;3.57;;;20.20;99.90;;;;;;5012363;28;20271;-72
2023/09/18 06:25:20;;;;;;;4.35;3.85;;;20.30;99.90;;;;;;5012398;28;20550;-74
2023/09/18 06:27:46;;;;;;;3.87;3.57;;;20.40;99.90;;;;;;5020395;28;20172;-73
2023/09/18 06:30:12;;;;;;;5.53;3.33;;;20.40;99.90;;;;;;5011967;28;20180;-72
2023/09/18 06:32:38;;;;;;;4.82;3.25;;;20.50;99.90;;;;;;5011539;28;20293;-74
2023/09/18 06:35:04;;;;;;;5.55;3.55;;;20.60;99.90;;;;;;5012279;28;20629;-71
2023/09/18 06:37:29;;;;;;;5.47;3.25;;;20.60;99.90;;;;;;5012238;28;20287;-72
2023/09/18 06:39:56;;;;;;;4.18;3.50;;;20.60;99.90;;;;;;5012064;28;20184;-73
2023/09/18 06:42:22;;;;;;;4.68;3.20;;;20.70;99.90;;;;;;5011957;28;20250;-71
2023/09/18 06:44:48;;;;;;;6.22;3.53;;;20.80;99.90;;;;;;5011902;28;20643;-72
2023/09/18 06:47:14;;;;;;;5.47;3.00;;;20.90;99.90;;;;;;5011199;28;20184;-73
2023/09/18 06:49:41;;;;;;;4.50;3.03;;;21.00;99.90;;;;;;5010398;28;20180;-72
2023/09/18 06:52:08;;;;;;;7.05;2.97;;;21.00;99.90;;;;;;5011626;28;20722;-73
2023/09/18 06:54:33;;;;;;;4.82;3.25;;;21.10;99.90;;;;;;5011825;28;20238;-73
2023/09/18 06:56:59;;;;;;;3.15;2.88;;;21.20;99.90;;;;;;5011688;28;20208;-73
2023/09/18 06:59:24;;;;;;;3.35;3.05;;;21.30;99.90;;;;;;5011661;28;20275;-73
2023/09/18 07:01:50;;;;;;;4.15;3.35;;;21.40;99.90;;;;;;5011593;28;20195;-73
2023/09/18 07:04:15;;;;;;;3.42;3.15;;;21.50;99.90;;;;;;5011298;28;20227;-73
2023/09/18 07:06:41;;;;;;;5.30;4.25;;;21.60;99.90;;;;;;5010976;28;20195;-73
2023/09/18 07:09:07;;;;;;;3.75;2.80;;;21.60;99.90;;;;;;5010804;28;20271;-73
2023/09/18 07:11:33;;;;;;;4.28;3.55;;;21.70;99.90;;;;;;5011386;28;20698;-74
2023/09/18 07:13:59;;;;;;;2.78;2.58;;;21.80;99.90;;;;;;5011266;28;20175;-73
2023/09/18 07:16:25;;;;;;;6.75;2.97;;;21.80;99.90;;;;;;5011420;28;20215;-73
2023/09/18 07:18:51;;;;;;;5.97;3.67;;;21.90;99.90;;;;;;5011294;28;20172;-73
2023/09/18 07:21:16;;;;;;;5.22;3.15;;;21.90;99.90;;;;;;5011157;28;20195;-72
2023/09/18 07:23:42;;;;;;;2.53;2.33;;;22.00;99.90;;;;;;5019812;28;20214;-72
2023/09/18 07:26:08;;;;;;;5.07;2.97;;;22.00;99.90;;;;;;5003402;28;20537;-72
2023/09/18 07:28:33;;;;;;;4.68;2.70;;;22.10;99.90;;;;;;5009843;28;20180;-74
2023/09/18 07:31:06;;;;;;;4.55;3.35;;;22.10;99.90;;;;;;5010996;28;20184;-73
2023/09/18 07:33:32;;;;;;;4.30;2.75;;;22.20;99.90;;;;;;5011579;28;20666;-72
2023/09/18 07:35:58;;;;;;;6.03;2.97;;;22.20;99.90;;;;;;5010699;28;20188;-72
2023/09/18 07:38:24;;;;;;;3.55;2.85;;;22.30;99.90;;;;;;5011011;28;20211;-74
2023/09/18 07:40:50;;;;;;;6.85;2.90;;;22.30;99.90;;;;;;5010845;28;20529;-72
2023/09/18 07:43:16;;;;;;;4.20;3.15;;;22.30;99.90;;;;;;5010674;28;20187;-74
2023/09/18 07:45:41;;;;;;;3.10;2.60;;;22.30;99.90;;;;;;5011338;28;20168;-74
2023/09/18 07:48:08;;;;;;;6.03;2.80;;;22.40;99.90;;;;;;5019201;28;20203;-72
2023/09/18 07:50:34;;;;;;;3.13;2.92;;;22.40;99.90;;;;;;5010694;28;20211;-73
2023/09/18 07:53:01;;;;;;;6.78;4.63;;;22.50;99.90;;;;;;5010773;28;20246;-72
2023/09/18 07:55:26;;;;;;;3.80;3.33;;;22.60;99.90;;;;;;5011159;28;20234;-73
2023/09/18 07:57:52;;;;;;;2.55;2.38;;;22.60;99.90;;;;;;5011046;28;20208;-72
2023/09/18 08:00:18;;;;;;;2.95;2.30;;;22.60;99.90;;;;;;5014618;28;20180;-72
2023/09/18 08:02:44;;;;;;;5.85;2.40;;;22.70;99.90;;;;;;5015039;28;20269;-72
2023/09/18 08:05:10;;;;;;;4.35;2.67;;;22.70;99.90;;;;;;5014684;28;20307;-72
2023/09/18 08:07:36;;;;;;;3.22;2.92;;;22.80;99.90;;;;;;5015063;28;20187;-72
2023/09/18 08:10:08;;;;;;;4.25;2.83;;;22.90;99.90;;;;;;5014533;28;20187;-72
2023/09/18 08:12:34;;;;;;;3.05;2.75;;;23.00;99.90;;;;;;5014738;28;20227;-72
2023/09/18 08:15:00;;;;;;;3.25;2.97;;;22.90;99.90;;;;;;5014679;28;20182;-72
2023/09/18 08:17:26;;;;;;;3.92;2.58;;;22.90;99.90;;;;;;5014595;28;20288;-72
2023/09/18 08:19:53;;;;;;;3.35;2.95;;;22.90;99.90;;;;;;5014367;28;20238;-72
2023/09/18 08:22:20;;;;;;;6.97;2.97;;;22.90;99.90;;;;;;5014778;28;20192;-73
2023/09/18 08:24:48;;;;;;;5.05;2.83;;;23.10;99.90;;;;;;5014608;28;20267;-73
2023/09/18 08:27:16;;;;;;;3.15;2.60;;;23.20;99.90;;;;;;5013317;28;20188;-73
2023/09/18 08:29:42;;;;;;;4.28;2.50;;;23.30;99.90;;;;;;5014415;28;20172;-73
2023/09/18 08:32:08;;;;;;;5.88;2.42;;;23.40;99.90;;;;;;5013929;28;20246;-73
2023/09/18 08:34:34;;;;;;;5.03;3.00;;;23.40;99.90;;;;;;5014031;28;20574;-73
2023/09/18 08:36:59;;;;;;;3.85;2.67;;;23.50;99.90;;;;;;5014288;28;20199;-73
2023/09/18 08:39:25;;;;;;;3.95;3.25;;;23.50;99.90;;;;;;5014124;28;20549;-73
2023/09/18 08:41:57;;;;;;;2.88;2.35;;;23.50;99.90;;;;;;5014366;28;20207;-73
2023/09/18 08:44:27;;;;;;;3.08;2.63;;;23.60;99.90;;;;;;5014378;28;20185;-73
2023/09/18 08:46:54;;;;;;;5.70;2.30;;;23.60;99.90;;;;;;5013998;28;20176;-72
2023/09/18 08:49:22;;;;;;;2.28;2.10;;;23.70;99.90;;;;;;5022389;28;20207;-74
2023/09/18 08:51:49;;;;;;;3.45;2.60;;;23.70;99.90;;;;;;5014149;28;20573;-73
2023/09/18 08:54:15;;;;;;;2.60;2.40;;;23.80;99.90;;;;;;5022055;28;20258;-73
2023/09/18 08:56:41;;;;;;;2.72;2.28;;;23.70;99.90;;;;;;5014111;28;20668;-72
2023/09/18 08:59:07;;;;;;;2.95;2.70;;;23.70;99.90;;;;;;5013686;28;20644;-72
2023/09/18 09:01:32;;;;;;;3.92;2.58;;;23.70;99.90;;;;;;5013428;28;20200;-74
2023/09/18 09:04:00;;;;;;;6.05;2.47;;;23.80;99.90;;;;;;5013855;28;20172;-72
2023/09/18 09:06:25;;;;;;;7.57;2.28;;;23.90;99.90;;;;;;5013866;28;20169;-73
2023/09/18 09:08:51;;;;;;;2.92;2.70;;;24.10;99.90;;;;;;5013228;28;20184;-73
2023/09/18 09:11:19;;;;;;;4.25;2.60;;;24.20;99.90;;;;;;5012758;28;20204;-72
2023/09/18 09:13:44;;;;;;;2.65;2.42;;;24.20;99.90;;;;;;5013752;28;20188;-74
2023/09/18 09:16:12;;;;;;;3.35;2.13;;;24.30;99.90;;;;;;5013447;28;20263;-74
2023/09/18 09:18:48;;;;;;;2.70;2.28;;;24.30;99.90;;;;;;5013358;28;20172;-74
2023/09/18 09:21:13;;;;;;;3.53;3.10;;;24.40;99.90;;;;;;5012545;28;20695;-72
2023/09/18 09:23:53;;;;;;;3.50;3.20;;;24.40;99.90;;;;;;5013741;28;20177;-73
2023/09/18 09:26:22;;;;;;;2.80;2.47;;;24.50;99.90;;;;;;5013598;28;20179;-72
2023/09/18 09:28:48;;;;;;;2.97;2.72;;;24.50;99.90;;;;;;5013673;28;20562;-73
2023/09/18 09:31:40;;;;;;;3.67;2.45;;;24.50;99.90;;;;;;5013433;28;20188;-74
2023/09/18 09:34:05;;;;;;;3.58;3.28;;;24.50;99.90;;;;;;5008165;28;20201;-72
2023/09/18 09:36:33;;;;;;;3.42;2.67;;;24.40;99.90;;;;;;5013278;28;20558;-72
2023/09/18 09:38:58;;;;;;;2.45;2.25;;;24.30;99.90;;;;;;5021114;28;20187;-73
2023/09/18 09:41:27;;;;;;;2.60;2.30;;;24.10;99.90;;;;;;5013271;28;20204;-71
2023/09/18 09:43:54;;;;;;;3.60;2.65;;;24.10;99.90;;;;;;5021380;28;20251;-73
2023/09/18 09:46:25;;;;;;;2.92;2.67;;;24.20;99.90;;;;;;5012753;28;20534;-70
2023/09/18 09:49:04;;;;;;;3.25;2.45;;;24.30;99.90;;;;;;5011666;28;20176;-72
2023/09/18 09:51:31;;;;;;;3.63;3.28;;;24.40;99.90;;;;;;5013119;28;20188;-73
2023/09/18 09:53:58;;;;;;;3.10;2.80;;;24.60;99.90;;;;;;5012872;28;20200;-71
2023/09/18 09:56:48;;;;;;;10.00;9.43;;;24.60;99.90;;;;;;5011703;28;20576;-71
2023/09/18 09:59:15;;;;;;;6.40;5.90;;;24.70;99.90;;;;;;5011407;28;20300;-71
2023/09/18 10:01:41;;;;;;;6.18;5.68;;;24.80;99.90;;;;;;5012639;28;20224;-72
2023/09/18 10:04:17;;;;;;;6.22;5.72;;;24.80;99.90;;;;;;5012754;28;20523;-71
2023/09/18 10:06:48;;;;;;;5.20;4.90;;;24.70;99.90;;;;;;5012952;28;20527;-74
2023/09/18 10:09:15;;;;;;;6.43;6.03;;;24.60;99.90;;;;;;5010950;28;20253;-75
2023/09/18 10:11:45;;;;;;;6.35;5.80;;;24.60;99.90;;;;;;5012523;28;20211;-74
2023/09/18 10:14:19;;;;;;;5.80;3.67;;;24.70;99.90;;;;;;5012454;28;20184;-72
2023/09/18 10:16:50;;;;;;;4.32;4.03;;;24.70;99.90;;;;;;5012311;28;20200;-72
2023/09/18 10:19:38;;;;;;;6.40;3.17;;;24.90;99.90;;;;;;5010815;28;20184;-72
2023/09/18 10:22:13;;;;;;;5.05;4.55;;;25.20;99.90;;;;;;5009465;28;20207;-72
2023/09/18 10:24:43;;;;;;;2.65;2.45;;;25.50;99.90;;;;;;5012128;28;20263;-73
2023/09/18 10:27:14;;;;;;;4.45;3.00;;;25.80;99.90;;;;;;5012215;28;20180;-76
2023/09/18 10:29:41;;;;;;;5.38;4.45;;;25.90;99.90;;;;;;5011872;28;20180;-74
2023/09/18 10:32:08;;;;;;;4.18;3.85;;;25.90;99.90;;;;;;5020121;28;20218;-72
2023/09/18 10:34:35;;;;;;;3.67;2.80;;;25.90;99.90;;;;;;5012076;28;20210;-73
2023/09/18 10:37:06;;;;;;;3.00;2.70;;;25.90;99.90;;;;;;5011930;28;20192;-73
2023/09/18 10:39:37;;;;;;;7.22;6.57;;;25.90;99.90;;;;;;5011981;28;20714;-73
2023/09/18 10:42:03;;;;;;;3.67;2.72;;;25.80;99.90;;;;;;5011823;28;20207;-72
2023/09/18 10:44:37;;;;;;;6.05;5.65;;;25.70;99.90;;;;;;5068297;28;20568;-70
2023/09/18 10:47:05;;;;;;;5.30;5.00;;;25.80;99.90;;;;;;5068126;28;20209;-72
2023/09/18 10:49:31;;;;;;;4.15;3.75;;;26.00;99.90;;;;;;5068107;28;20178;-75
2023/09/18 10:51:58;;;;;;;4.97;4.55;;;26.10;99.90;;;;;;5057564;28;20278;-74
2023/09/18 10:54:26;;;;;;;5.63;2.95;;;26.30;99.90;;;;;;5047995;28;20170;-73
2023/09/18 10:56:52;;;;;;;3.00;2.42;;;26.30;99.90;;;;;;5048712;28;20481;-73
2023/09/18 10:59:20;;;;;;;2.97;2.60;;;26.40;99.90;;;;;;5047728;28;20710;-74
2023/09/18 11:01:48;;;;;;;2.42;2.28;;;26.40;99.90;;;;;;5048158;28;20283;-71
2023/09/18 11:04:14;;;;;;;6.40;2.70;;;26.50;99.90;;;;;;5047624;28;20206;-73
2023/09/18 11:06:55;;;;;;;3.67;2.72;;;26.40;99.90;;;;;;5054082;28;20186;-73
2023/09/18 11:09:23;;;;;;;4.47;2.30;;;26.40;99.90;;;;;;5047751;28;20195;-73
2023/09/18 11:12:02;;;;;;;4.47;2.92;;;26.40;99.90;;;;;;5054008;28;20208;-73
2023/09/18 11:14:50;;;;;;;4.45;3.47;;;26.50;99.90;;;;;;5040628;28;20281;-71
2023/09/18 11:17:39;;;;;;;6.70;6.28;;;26.60;99.90;;;;;;5047700;28;20228;-73
2023/09/18 11:20:24;;;;;;;3.22;2.78;;;26.70;99.90;;;;;;5049032;28;20187;-74
2023/09/18 11:23:15;;;;;;;2.95;2.75;;;26.70;99.90;;;;;;5050638;28;20207;-74
2023/09/18 11:25:42;;;;;;;3.58;3.00;;;26.60;99.90;;;;;;5056160;28;20250;-73
2023/09/18 11:28:24;;;;;;;5.25;3.00;;;26.70;99.90;;;;;;5050434;28;20175;-74
2023/09/18 11:30:58;;;;;;;2.97;2.67;;;26.80;99.90;;;;;;5051176;28;20183;-73
2023/09/18 11:33:31;;;;;;;2.63;2.40;;;26.90;99.90;;;;;;5039829;28;20182;-73
2023/09/18 11:36:03;;;;;;;3.75;3.55;;;26.70;99.90;;;;;;5052757;28;20175;-74
2023/09/18 11:38:29;;;;;;;4.72;4.43;;;26.50;99.90;;;;;;5031892;28;20183;-73
2023/09/18 11:40:54;;;;;;;7.60;7.13;;;26.30;99.90;;;;;;5047126;28;20186;-75
2023/09/18 11:43:31;;;;;;;4.85;4.55;;;26.20;99.90;;;;;;5046710;28;20294;-73
2023/09/18 11:46:03;;;;;;;3.67;3.38;;;26.50;99.90;;;;;;5047313;28;20259;-73
2023/09/18 11:48:33;;;;;;;4.53;4.18;;;26.70;99.90;;;;;;5046918;28;20225;-73
2023/09/18 11:51:02;;;;;;;4.00;3.42;;;27.00;99.90;;;;;;5059395;28;20642;-72
2023/09/18 11:53:29;;;;;;;3.20;3.00;;;27.20;99.90;;;;;;5047192;28;20179;-70
2023/09/18 11:55:55;;;;;;;6.25;3.28;;;27.30;99.90;;;;;;5034166;28;20194;-71
2023/09/18 11:58:23;;;;;;;3.35;2.90;;;27.30;99.90;;;;;;5038999;28;20713;-73
2023/09/18 12:00:54;;;;;;;7.20;6.90;;;27.30;99.90;;;;;;5036942;28;20187;-70
2023/09/18 12:03:27;;;;;;;5.75;5.38;;;27.60;99.90;;;;;;5033281;28;20191;-73
2023/09/18 12:05:56;;;;;;;5.63;5.13;;;27.70;99.90;;;;;;5033912;28;20635;-72
2023/09/18 12:08:22;;;;;;;7.07;6.13;;;27.40;99.90;;;;;;5033187;28;20328;-72
2023/09/18 12:10:50;;;;;;;5.15;4.68;;;27.30;99.90;;;;;;5033189;28;20186;-72
2023/09/18 12:13:16;;;;;;;3.80;3.50;;;27.40;99.90;;;;;;5033472;28;20266;-71
2023/09/18 12:15:43;;;;;;;6.10;2.97;;;27.40;99.90;;;;;;5033499;28;20262;-71
2023/09/18 12:18:11;;;;;;;2.72;2.17;;;27.60;99.90;;;;;;5033203;28;20700;-74
2023/09/18 12:20:37;;;;;;;5.15;2.95;;;27.90;99.90;;;;;;5033117;28;20194;-72
2023/09/18 12:23:04;;;;;;;4.10;3.80;;;27.90;99.90;;;;;;5032976;28;20204;-72
2023/09/18 12:25:29;;;;;;;6.82;6.40;;;28.20;99.90;;;;;;5032161;28;20183;-71
2023/09/18 12:27:55;;;;;;;5.07;4.38;;;28.20;99.90;;;;;;5033183;28;20642;-74
2023/09/18 12:30:22;;;;;;;4.65;3.58;;;28.00;99.90;;;;;;5031438;28;20183;-73
2023/09/18 12:32:49;;;;;;;4.78;2.60;;;27.50;99.90;;;;;;5032985;28;20222;-76
2023/09/18 12:35:15;;;;;;;4.72;4.38;;;27.20;99.90;;;;;;5032691;28;20184;-73
2023/09/18 12:37:41;;;;;;;4.10;3.80;;;26.90;99.90;;;;;;5033143;28;20180;-75
2023/09/18 12:40:20;;;;;;;4.90;4.53;;;26.70;99.90;;;;;;5032729;28;20171;-74
2023/09/18 12:42:46;;;;;;;4.03;2.55;;;26.80;99.90;;;;;;5032531;28;20214;-71
2023/09/18 12:45:12;;;;;;;2.40;2.20;;;27.10;99.90;;;;;;5039735;28;20179;-75